Terminal Aerodrome Forecast
Issued by NWS

Home | Current Version | Previous Version | Text Only | Print | Product List | Glossary On
Versions: 1 2 3 4 5 6 7 8 9 10 11 12 13 14
000
FTAK31 PAJN 302320
TAFAWG
TAF
PAWG 302320Z 3100/3124 14008KT P6SM -SHRA SCT020 BKN040 OVC060
     FM310600 21010KT P6SM -SHRA BKN040 OVC060
     FM311200 12007KT P6SM -SHRA SCT025 OVC050
     FM311800 10006KT P6SM -SHRA OVC050
      AMD LTD TO CLD VIS AND WIND 3106/3115=

USA.gov is the U.S. government's official web portal to all federal, state and local government web resources and services.